Arpin, Wisconsin
Current Conditions -  °F | °C
As of 5:54 AM on Monday 24 Nov 2014 (Local Time) from KMFI Reporting Station
Light Rain Light Rain  
Wind Chill: 29°   Ceiling: 600
Heat Index: 37°   Visibility: 8mi
Dew Point: 35°   Wind: 13mph
Humidity: 93%   Direction: 310°NW
Pressure: 29.09"   Gusts: NA
Location:  44.54°N, 90.04°W
Report Text: KMFI 241154Z AUTO 31011KT 8SM -RA OVC006 03/02 A2909 RMK AO2 CIG 005V010 SLP856 P0000 60002 70002 T00280017 10061 20028 55000
Loading
Personal Weather Stations






























Interactive Weather Map New forecast layout! Learn more

10-Day Weather Forecast

Advertisements
Track Severe Weather on mobile